createdAt,value
2022-08-17T08:49:17.067Z,32.90
2022-08-17T08:51:57.743Z,33.40
2022-08-17T08:55:08.707Z,33.40
2022-08-17T08:58:03.738Z,33.40
2022-08-17T09:00:51.185Z,32.90
2022-08-17T09:04:23.411Z,33.30
2022-08-17T09:07:12.985Z,34.90
2022-08-17T09:09:59.478Z,35.40
2022-08-17T09:12:35.270Z,35.10
2022-08-17T09:15:12.966Z,35.90
2022-08-17T09:17:53.174Z,35.10
2022-08-17T09:20:36.422Z,36.20
2022-08-17T09:23:08.569Z,36.50
2022-08-17T09:25:58.301Z,36.90
2022-08-17T09:28:39.041Z,37.70
2022-08-17T09:31:15.997Z,37.50
2022-08-17T09:33:47.078Z,37.30
2022-08-17T09:36:23.264Z,37.60
2022-08-17T09:39:16.167Z,36.60
2022-08-17T09:41:52.958Z,37.00
2022-08-17T09:44:52.165Z,37.50
2022-08-17T09:47:42.159Z,37.70
2022-08-17T09:51:03.440Z,37.50
2022-08-17T09:53:11.436Z,37.40
2022-08-17T09:55:53.452Z,36.90
2022-08-17T09:58:29.388Z,37.00
2022-08-17T10:01:23.806Z,37.00
2022-08-17T10:04:02.347Z,36.20
2022-08-17T10:06:35.520Z,36.40
2022-08-17T10:09:23.728Z,36.80
2022-08-17T10:12:20.218Z,37.70
2022-08-17T10:15:09.770Z,36.00
2022-08-17T10:18:09.284Z,35.90
2022-08-17T10:21:26.655Z,36.60
2022-08-17T10:24:27.319Z,36.70
2022-08-17T10:26:57.858Z,36.60
2022-08-17T10:29:48.876Z,36.70
2022-08-17T10:32:37.460Z,37.50
2022-08-17T10:35:29.338Z,37.90
2022-08-17T10:38:12.102Z,37.40
2022-08-17T10:41:04.584Z,37.50
2022-08-17T10:44:37.311Z,37.10
2022-08-17T10:46:58.223Z,36.80
2022-08-17T10:49:29.479Z,37.70
2022-08-17T10:51:59.978Z,38.20
2022-08-17T10:54:47.787Z,38.20
2022-08-17T10:57:29.890Z,37.60
2022-08-17T11:00:15.701Z,37.60
2022-08-17T11:02:49.869Z,37.80
2022-08-17T11:05:44.238Z,38.00
2022-08-17T11:08:38.553Z,38.00
2022-08-17T11:11:51.008Z,38.60
2022-08-17T11:15:09.935Z,39.40
2022-08-17T11:17:53.965Z,38.90
2022-08-17T11:21:06.254Z,38.50
2022-08-17T11:23:48.991Z,38.70
2022-08-17T11:26:29.742Z,38.70
2022-08-17T11:29:02.170Z,38.70
2022-08-17T11:31:38.776Z,37.60
2022-08-17T11:34:27.216Z,36.70
2022-08-17T11:37:23.529Z,36.90
2022-08-17T11:40:09.949Z,37.70
2022-08-17T11:42:46.605Z,38.00
2022-08-17T11:45:45.181Z,39.30
2022-08-17T11:48:49.475Z,38.70
2022-08-17T11:51:34.117Z,38.60
2022-08-17T11:57:27.023Z,38.50
2022-08-17T11:59:53.872Z,37.90
2022-08-17T12:02:32.878Z,37.60
2022-08-17T12:05:15.367Z,37.80
2022-08-17T12:07:49.411Z,38.20
2022-08-17T12:10:21.656Z,39.20
2022-08-17T12:12:53.148Z,39.50
2022-08-17T12:15:30.126Z,39.80
2022-08-17T12:17:58.941Z,39.50
2022-08-17T12:20:33.018Z,38.80
2022-08-17T12:23:21.403Z,39.70
2022-08-17T12:25:56.718Z,39.20
2022-08-17T12:28:33.773Z,40.10
2022-08-17T12:31:11.807Z,40.50
2022-08-17T12:33:44.102Z,40.70
2022-08-17T12:36:15.736Z,40.20
2022-08-17T12:39:12.878Z,39.50
2022-08-17T12:41:44.572Z,39.30
2022-08-17T12:44:12.258Z,38.90
2022-08-17T12:47:04.814Z,38.60
2022-08-17T12:49:35.621Z,38.40
2022-08-17T12:52:12.581Z,38.90
2022-08-17T12:54:51.494Z,38.60
2022-08-17T12:57:26.541Z,38.70
2022-08-17T13:00:08.302Z,39.30
2022-08-17T13:02:52.209Z,39.30
2022-08-17T13:05:38.025Z,39.10
2022-08-17T13:08:24.571Z,39.70
2022-08-17T13:11:18.415Z,39.30
2022-08-17T13:13:52.464Z,39.80
2022-08-17T13:16:28.094Z,39.70
2022-08-17T13:19:15.638Z,39.30
2022-08-17T13:21:52.444Z,40.10
2022-08-17T13:24:25.088Z,40.70
2022-08-17T13:27:07.861Z,40.40
2022-08-17T13:29:51.521Z,40.40
2022-08-17T13:32:33.498Z,40.40
2022-08-17T13:35:15.407Z,40.30
2022-08-17T13:37:59.567Z,40.40
2022-08-17T13:40:35.583Z,39.00
2022-08-17T13:43:03.405Z,38.00
2022-08-17T13:45:36.203Z,37.10
2022-08-17T13:48:16.032Z,36.90
2022-08-17T13:50:47.548Z,36.80
2022-08-17T13:53:25.112Z,36.50
2022-08-17T13:55:59.424Z,36.60
2022-08-17T13:58:30.492Z,36.70
2022-08-17T14:00:57.766Z,36.40
2022-08-17T14:03:25.129Z,36.00
2022-08-17T14:05:53.003Z,35.40
2022-08-17T14:08:20.919Z,35.40
2022-08-17T14:10:58.334Z,35.60
2022-08-17T14:13:25.183Z,35.90
2022-08-17T14:15:54.543Z,36.30
2022-08-17T14:18:52.022Z,37.20
2022-08-17T14:21:10.716Z,38.20
2022-08-17T14:23:37.977Z,38.50
2022-08-17T14:26:05.604Z,38.10
2022-08-17T14:28:33.043Z,38.70
2022-08-17T14:31:03.372Z,38.50
2022-08-17T14:33:30.207Z,39.00
2022-08-17T14:35:58.150Z,39.60
2022-08-17T14:38:25.258Z,39.70
2022-08-17T14:40:52.681Z,39.90
2022-08-17T14:43:20.916Z,39.70
2022-08-17T14:45:47.801Z,39.20
2022-08-17T14:48:14.652Z,39.50
2022-08-17T14:50:43.154Z,39.70
2022-08-17T14:53:16.464Z,39.80
2022-08-17T14:55:45.809Z,40.10
2022-08-17T14:58:14.096Z,39.90
2022-08-17T15:00:43.058Z,39.90
2022-08-17T15:03:11.536Z,40.10
2022-08-17T15:05:39.419Z,40.00
2022-08-17T15:08:07.125Z,40.10
2022-08-17T15:10:34.404Z,39.90
2022-08-17T15:13:01.727Z,39.90
2022-08-17T15:15:29.546Z,39.80
2022-08-17T15:17:57.053Z,39.50
2022-08-17T15:20:28.085Z,38.30
2022-08-17T15:22:56.172Z,37.00
2022-08-17T15:25:25.783Z,35.80
2022-08-17T15:27:52.973Z,35.40
2022-08-17T15:30:20.654Z,35.10
2022-08-17T15:32:51.417Z,34.80
2022-08-17T15:35:28.052Z,34.10
2022-08-17T15:38:11.636Z,33.70
2022-08-17T15:40:46.525Z,33.50
2022-08-17T15:43:16.937Z,33.50
2022-08-17T15:45:44.156Z,33.70
2022-08-17T15:48:11.474Z,33.80
2022-08-17T15:50:38.473Z,33.90
2022-08-17T15:53:05.452Z,33.90
2022-08-17T15:55:33.763Z,33.90
2022-08-17T15:58:03.752Z,33.80
2022-08-17T16:00:31.103Z,33.70
2022-08-17T16:03:44.761Z,33.40
2022-08-17T16:05:51.655Z,33.20
2022-08-17T16:08:21.299Z,33.10
2022-08-17T16:10:50.334Z,32.90
2022-08-17T16:13:19.105Z,32.60
2022-08-17T16:15:57.142Z,32.40
2022-08-17T16:18:30.983Z,32.20
2022-08-17T16:21:21.264Z,32.10
2022-08-17T16:23:51.457Z,32.10
2022-08-17T16:26:33.099Z,31.90
2022-08-17T16:29:02.204Z,31.80
2022-08-17T16:31:38.777Z,31.80
2022-08-17T16:58:54.114Z,30.90
